• Join FlightAware (Why Join?)
  • Login
  • US Flag 
03:55AM EDT


 

Airport Tracker/Info


-or-


 

Live Flight TrackerFlight Track Log ✈ VH-HJK ✈ 16-May-2013 ✈ YCFS - YSTW / TMW

Flight Track Log - Related Links

Times and Time Zones

All times are in EDT time to prevent confusion due to time zone crossing. See the VH-HJK flight status page for this flight to view local times or setup timezone preferences in your user account.

Time Position Orientation Groundspeed Altitude Reporting Facility
EDT Latitude Longitude Course Direction KTS MPH feet Rate Location/Type
05:56AM -30.3359 153.0235 251° West 8,000  Level Aus ATC (Calculated)
05:56AM -30.3359 153.0235 251° West 8,000  Level Aus ATC (Calculated)
05:57AM -30.3359 153.0235 251° West 8,000  Level Aus ATC (Calculated)
05:59AM -30.3605 152.9541 248° West  Level Estimated
05:59AM -30.3596 152.9298 237° Southwest 8,000  Level Aus ATC (Calculated)
06:01AM -30.3817 152.8680 247° West  Level Estimated
06:01AM -30.3697 152.9120 247° West 123 142 8,200  Level Aus ATC (RADAR)
06:02AM -30.3963 152.8271 247° West  Level Estimated
06:02AM -30.3764 152.8764 258° West 119 137 8,900  Level Aus ATC (RADAR)
06:03AM -30.3782 152.8597 263° West 121 139 9,300 660 Climbing Aus ATC (RADAR)
06:03AM -30.3855 152.8383 248° West 122 140 9,600 420 Climbing Aus ATC (RADAR)
06:04AM -30.3927 152.8098 254° West 122 140 9,900 180 Climbing Aus ATC (RADAR)
06:05AM -30.3970 152.7827 260° West 139 160 9,900 60 Level Aus ATC (RADAR)
06:05AM -30.4028 152.7541 257° West 154 177 10,000  Climbing Aus ATC (RADAR)
06:06AM -30.4092 152.7251 256° West 158 182 9,900  Descending Aus ATC (RADAR)
06:06AM -30.4148 152.6966 257° West 154 177 10,000 60 Climbing Aus ATC (RADAR)
06:07AM -30.4270 152.6537 252° West 152 175 10,000  Level Aus ATC (RADAR)
06:08AM -30.4318 152.6331 255° West 155 178 10,000 -120 Level Aus ATC (RADAR)
06:08AM -30.4389 152.6030 255° West 163 188 9,900  Descending Aus ATC (RADAR)
06:09AM -30.4494 152.5691 250° West 150 173 10,000  Climbing Aus ATC (RADAR)
06:10AM -30.4551 152.5378 258° West 164 189 9,900  Descending Aus ATC (RADAR)
06:10AM -30.4613 152.5108 255° West 151 174 10,000  Climbing Aus ATC (RADAR)
06:11AM -30.4680 152.4822 255° West 157 181 9,900 60 Descending Aus ATC (RADAR)
06:11AM -30.4746 152.4542 255° West 155 178 10,100  Climbing Aus ATC (RADAR)
06:12AM -30.4871 152.4044 254° West 161 185 9,900 -120 Descending Aus ATC (RADAR)
06:13AM -30.4914 152.3842 256° West 156 180 10,000  Climbing Aus ATC (RADAR)
06:13AM -30.5008 152.3569 248° West 158 182 9,900  Descending Aus ATC (RADAR)
06:14AM -30.5170 152.3270 238° Southwest 148 170 10,000 60 Climbing Aus ATC (RADAR)
06:15AM -30.5281 152.3026 242° Southwest 146 168 10,000  Level Aus ATC (RADAR)
06:16AM -30.5385 152.2630 253° West 153 176 10,000  Level Aus ATC (RADAR)
06:16AM -30.5441 152.2484 246° West 151 174 10,000 -120 Level Aus ATC (RADAR)
06:17AM -30.5567 152.2198 243° Southwest 151 174 9,900  Descending Aus ATC (RADAR)
06:17AM -30.5717 152.1805 246° West 143 165 10,000  Climbing Aus ATC (RADAR)
06:18AM -30.5781 152.1613 249° West 147 169 9,900  Descending Aus ATC (RADAR)
06:18AM -30.5879 152.1357 246° West 149 171 10,000 60 Climbing Aus ATC (RADAR)
06:19AM -30.5992 152.1043 247° West 140 161 10,000  Level Aus ATC (RADAR)
06:20AM -30.6078 152.0790 248° West 144 166 10,000  Level Aus ATC (RADAR)
06:20AM -30.6189 152.0555 241° Southwest 144 166 10,000 -120 Level Aus ATC (RADAR)
06:21AM -30.6263 152.0323 250° West 149 171 9,900  Descending Aus ATC (RADAR)
06:21AM -30.6350 152.0065 249° West 147 169 10,000  Climbing Aus ATC (RADAR)
06:22AM -30.6532 151.9624 244° Southwest 154 177 9,900 -120 Descending Aus ATC (RADAR)
06:23AM -30.6593 151.9417 251° West 152 175 9,900 120 Level Aus ATC (RADAR)
06:23AM -30.6696 151.9286 228° Southwest 136 157 10,000  Climbing Aus ATC (RADAR)
06:24AM -30.6797 151.9016 247° West 152 175 9,900 -120 Descending Aus ATC (RADAR)
06:25AM -30.6916 151.8715 245° Southwest 153 176 9,900  Level Aus ATC (RADAR)
06:25AM -30.6996 151.8539 242° Southwest 150 173 9,900 60 Level Aus ATC (RADAR)
06:25AM -30.7119 151.8290 240° Southwest 153 176 10,000 60 Climbing Aus ATC (RADAR)
06:26AM -30.7358 151.8037 222° Southwest 155 178 10,000  Level Aus ATC (RADAR)
06:27AM -30.7520 151.7817 229° Southwest 153 176 10,000 -120 Level Aus ATC (RADAR)
06:28AM -30.7732 151.7451 236° Southwest 149 171 9,900  Descending Aus ATC (RADAR)
06:28AM -30.7831 151.7293 234° Southwest 147 169 10,000  Climbing Aus ATC (RADAR)
06:29AM -30.7963 151.7049 238° Southwest 152 175 9,900  Descending Aus ATC (RADAR)
06:29AM -30.8121 151.6790 235° Southwest 148 170 10,000  Climbing Aus ATC (RADAR)
06:30AM -30.8259 151.6557 235° Southwest 150 173 9,900  Descending Aus ATC (RADAR)
06:31AM -30.8406 151.6337 232° Southwest 149 171 10,000 -180 Climbing Aus ATC (RADAR)
06:31AM -30.8557 151.6103 233° Southwest 154 177 9,700 -540 Descending Aus ATC (RADAR)
06:32AM -30.8706 151.5856 235° Southwest 159 183 9,400 -600 Descending Aus ATC (RADAR)
06:33AM -30.8890 151.5395 245° Southwest 159 183 8,800 -660 Descending Aus ATC (RADAR)
06:33AM -30.8971 151.5194 245° Southwest 163 188 8,500 -840 Descending Aus ATC (RADAR)
06:34AM -30.9082 151.4919 245° Southwest 162 186 8,000 -660 Descending Aus ATC (RADAR)
06:34AM -30.9278 151.4657 229° Southwest 160 184 7,700 -660 Descending Aus ATC (RADAR)
06:35AM -30.9479 151.4400 228° Southwest 162 186 7,200 -780 Descending Aus ATC (RADAR)
06:36AM -30.9646 151.4167 230° Southwest 162 186 6,800 -720 Descending Aus ATC (RADAR)
06:36AM -30.9759 151.3906 243° Southwest 155 178 6,400 -420 Descending Aus ATC (RADAR)
06:37AM -30.9869 151.3703 238° Southwest 149 171 6,400 60 Level Aus ATC (RADAR)
06:38AM -31.0178 151.3321 227° Southwest 136 157 6,500  Climbing Aus ATC (RADAR)
06:38AM -31.0258 151.3206 231° Southwest 137 158 6,400 -360 Descending Aus ATC (RADAR)
06:39AM -31.0383 151.2978 237° Southwest 142 163 6,200 -480 Descending Aus ATC (RADAR)
06:40AM -31.0534 151.2657 241° Southwest 151 174 5,800 -480 Descending Aus ATC (RADAR)
06:40AM -31.0700 151.2432 229° Southwest 156 180 5,600 -300 Descending Aus ATC (RADAR)
06:41AM -31.0851 151.2204 232° Southwest 153 176 5,500  Descending Aus ATC (RADAR)
06:41AM -31.0963 151.2005 237° Southwest 148 170 5,600 60 Climbing Aus ATC (RADAR)
06:42AM -31.1082 151.1790 237° Southwest 137 158 5,600 60 Level Aus ATC (RADAR)
06:43AM -31.1283 151.1420 238° Southwest 133 153 5,700 -120 Climbing Aus ATC (RADAR)
06:43AM -31.1381 151.1272 232° Southwest 138 159 5,500 -300 Descending Aus ATC (RADAR)
06:44AM -31.1505 151.1048 237° Southwest 140 161 5,400 -120 Descending Aus ATC (RADAR)
06:45AM -31.1662 151.0780 236° Southwest 135 155 5,400 120 Level Aus ATC (RADAR)
06:45AM -31.1754 151.0542 246° West 136 157 5,600 -180 Climbing Aus ATC (RADAR)
06:46AM -31.1861 151.0321 240° Southwest 135 155 5,200 -780 Descending Aus ATC (RADAR)
06:46AM -31.1971 151.0137 235° Southwest 138 159 4,800 -780 Descending Aus ATC (RADAR)
06:47AM -31.2026 150.9924 253° West 122 140 4,400 -720 Descending Aus ATC (RADAR)
06:48AM -31.1778 150.9743 328° Northwest 131 151 3,900 -660 Descending Aus ATC (RADAR)
06:48AM -31.1663 150.9599 313° West 122 140 3,600 -600 Descending Aus ATC (RADAR)
06:49AM -31.1544 150.9440 311° West 112 129 3,300 -540 Descending Aus ATC (RADAR)
06:49AM -31.1431 150.9285 310° West 108 124 3,000 -660 Descending Aus ATC (RADAR)
06:50AM -31.1324 150.9148 312° West 112 129 2,600 -660 Descending Aus ATC (RADAR)
06:50AM -31.1191 150.8992 315° West 114 131 2,300 -540 Descending Aus ATC (RADAR)
06:51AM -31.1077 150.8831 310° West 111 128 2,000 -600 Descending Aus ATC (RADAR)
06:51AM -31.0971 150.8706 314° West 108 124 1,700 -600 Descending Aus ATC (RADAR)
06:52AM -31.0863 150.8565 312° West 100 115 1,400 -600 Descending Aus ATC (RADAR)
06:52AM -31.0802 150.8490 313° West 97 112 1,200 -600 Descending Aus ATC (RADAR)